Espace membre
Imprimable
Challenges > Delhalle - Amay, 11/09/2016, BEL - Le Semi-Vert d'Amay
Liste des rapports > Delhalle - Classement
Recherche: Page: [1]
71 Entrées
 
Les réclamations ne sont plus acceptées, les résultats sont considérés comme définitifs.
Catégorie
PosNrNomAgeIOCLigueEquipeRéelTempsTkmMoy.RangNomScrPtsLocalité
1.5VANDROOGENBROECK VIRGINIE45BELCABWTRAINING 71:28:451:28:484:13 14.251AI118972BRAINE L'ALLEUD
2.125VAN DER ZWALMEN SABINE36BELUSBWMYSTERE1:32:101:32:144:23 13.721DAM23931LASNE
3.3195VANDEWEYER LUDIVINE38BELSERUNNERS1:42:181:42:384:52 12.332DAM68789FLÉMALLE
4.907THIRY MARIE34BELRCNAMUR1:44:241:44:304:58 12.113DAM81758NANINNE
5.88LOUSBERG CARINE49BELHUYTRANSITION SP1:47:061:47:175:06 11.802AI199717ANTHEIT
6.209DE GREVE GEERTRUI41BELET CHIEVRES1:47:341:47:565:07 11.733AI1104708EREMBODEGEM
7.3351NICASSIO VANESSA36BGRJIA1:51:041:51:185:17 11.374DAM119664
8.3374MAGAM MURIEL43BELSPRIMONRUNNER'S TEAM SPRIMONT1:52:561:53:105:22 11.184AI1133635
9.3228ROCHUS ELENE33BEL1:53:591:54:215:26 11.075DAM136624ANTHEIT
10.3304THEYS SOPHIE26BEL1:54:261:55:125:28 10.996DAM144612
11.483DE WOOT ANTOINETTE52BELESM1:55:131:55:365:29 10.951AI2149601MARCHIENNE-AU-PONT
12.3383DEFERIERE CAROLE38BELJAMES1:58:041:58:215:37 10.707DAM167561
13.3309MATAGNE SOPHIE39BEL2:00:192:00:245:43 10.518DAM183529
14.441KOOB MARIE-CECILE46BELVERTIGO2:00:442:00:525:44 10.475AI1189520JURBISE
15.140KOHL ANGELIQUE47BELHUYFOULÉES DU PLAISIR2:01:392:01:515:47 10.396AI1196506HUY
16.3200LEQUEUX SARAH37BELOCAN2:01:332:02:155:48 10.359DAM197506BAS-OHA
17.3323BEEKHUIS JENNIFER37BELOCAN2:02:052:02:475:50 10.3110DAM200499
18.3390LANNOY CECILE36BEL2:02:502:03:375:52 10.2411DAM202492
19.3194DUNCAN STRACY26BEL2:03:162:03:385:52 10.2412DAM203487HUCCORGNE
20.3277VAN ZAND MAJA60BELACA2:04:182:04:335:55 10.161AI3209474
21.3328LALOUX HELENE25BELFRELONS2:04:302:05:105:56 10.1113DAM217465
22.3352ANDRE CLAUDETTE62BELJOG'IN ATTITUDE2:04:442:05:145:57 10.112AI3218462
23.3165THIRION CAMILLE27BELLES FRELONS2:05:042:05:445:58 10.0714DAM220458MODAVE
24.967URBAIN GINETTE64FRASPIBO2:06:212:06:326:00 10.003AI3225443BELLIGNIES
25.733CRYNS VALERIE49BELUSBWMYSTERE2:06:292:07:076:02 9.967AI1232436BRAINE L'ALLEUD
26.3330MORTELE MALORY25BEL2:08:192:08:196:05 9.8615DAM240415
27.331GODFROID YAEL16BELMYSTERE2:07:522:08:236:06 9.861ESF241418WATERLOO
28.893VERGISON ANNE47BELUSBWMYSTERE2:08:162:08:506:07 9.838AI1245411WATERLOO
29.3315PHILIPPART MORGANE40BEL2:08:262:09:006:07 9.819AI1246409
30.3310STICKER MARGOT25BELSTRAT TODAY2:09:102:09:356:09 9.7716DAM247402
31.3376STALPORT CAROLE32BELLES FRELONS2:10:412:11:216:14 9.6417DAM255384
32.3166MARQUET DONATIENNE48BEL2:10:412:11:226:14 9.6410AI1256383MODAVE
33.3313RIGA SABINE53BELNAC2:11:352:11:586:16 9.592AI2258374
34.200CORNET ANNE50BELFLEU2:12:052:12:416:18 9.543AI2266364JEMEPPE SUR SAMBRE
35.120DE BRUYNE ANNE49BELLDLV2:13:232:13:386:21 9.4711AI1274347WEMMEL
36.468DEMIN LIEVE49BELMYSTERE2:13:162:13:486:21 9.4612AI1277345BRUXELLES
37.3254SCHERRER CHRISTELLE-MARIE42BELENJEMBEE2:13:252:14:256:23 9.4213AI1279342
38.3308LUISETTO MOIRA32BEL2:14:252:14:476:24 9.3918DAM280334
39.3206VILAIN CHRISTIANE71BELSPTW WAVRE2:15:282:16:076:28 9.301AI4287320GREZ-DOICEAU
40.826LAMERANT CHANTAL52BELOXYGENE2:17:452:18:106:33 9.164AI2293299BIERCEE
41.3193DE CEUNINCK EVELYNE45BEL2:18:272:19:046:36 9.1014AI1295292FORRIÈRES
42.3265STEVENS DOMINIQUE53BELJAMES2:18:412:19:166:37 9.095AI2298287
43.76MORRIS ELISABETH56BELENJAMBEENJAMBÉE2:18:532:19:206:37 9.086AI2300284
44.729DE WINTER HILDE53BELRUNNIN'GREZ2:22:032:22:366:46 8.887ai2306257ARCHENNES
45.186HILLEN HILDE48BELAVN2:22:162:22:536:47 8.8615ai1307255MEER
46.629ROLAND CATHY52BELACLO2:22:162:22:566:47 8.868ai2308254GODARVILLE
47.3168VERLAINE VERONIQUE53BEL2:23:222:24:136:51 8.789ai2314241HEUSY
48.3172THYS CAROLINE41BELRUNNING TEAM CONDROZ2:24:052:24:336:52 8.7616ai1315235MARCHIN
49.3171THYS RACHEL38BEL2:24:052:24:336:52 8.7619dam316234VAUX ET BORSET
50.362SAUVEGARDE ANNE-PASCALE48BELSPT WAVRE2:24:142:24:536:53 8.7417ai1319231COURT-ST-ETIENNE
51.3325GOEMAERE DOLORES33BEL2:24:382:25:116:53 8.7220dam321226
52.3357ROSKAM JUSTINE28BEL2:24:542:25:546:55 8.6821dam324222
53.36MESSAOUDI NADIA29BELMYSTERE2:26:532:27:247:00 8.5922dam328205BRUXELLES
54.3392DAINE ARIANE46BEL2:26:552:27:297:00 8.5818ai1330203
55.3340PRAILLET PAULINE29BELLES EOLES2:26:492:27:337:00 8.5823dam332202
56.3274VERKAEREN CHARLINE37BEL2:28:092:28:547:04 8.5024dam335190
57.7HENNERESSE ISABELLE46BELJOGGANS2:28:522:29:477:07 8.4519ai1339182GEDINNE
58.572TALLIER JEANNY62BEL2:29:472:29:477:07 8.454ai3340175
59.3220CHARDON ARIANE46BELOCAN2:29:592:30:447:09 8.4020ai1342172TILLIER
60.3236DRIESSEN JOANNIC38BELOCAN2:29:572:30:457:09 8.4025dam344171HUY
61.3201BASTENS TANJA46BELAC LILLE2:33:452:34:417:20 8.1821ai1348142WECHELDERZANDE
62.881HOURMAN GWENDOLINE49BELENJAMBEE2:33:462:34:447:21 8.1822ai1349142TERVUREN
63.358MATTHIEU FABIENNE51BELENJAMBEE2:33:452:34:447:21 8.1810ai2350141UCCLE
64.3183CARRERAS MONTSERRAT56BELOEH2:33:542:34:547:21 8.1711ai2351139ITTRE
65.529DAUTREBANDE NATHALIE53BELSPTWAVRE2:35:242:36:027:24 8.1112ai2354127DION-VALMONT
66.3268TURRIONI ORIANA45BEL2:37:352:38:207:31 7.9923ai1359109
67.3391VERMEER ANNE51BELRONVAU2:45:152:46:287:54 7.6013ai236260
68.3314STICKER MARJORIE24BELOTC2:48:432:49:088:02 7.4826dam36537
69.3338OTMANI ELISABETH49BELLES FRELONS2:49:452:50:538:06 7.4124ai136630
70.3339VANNESTE MEGGIE28BELLES FRELONS2:49:452:50:538:06 7.4127dam36729
DNF3306DANIELS ARLETTE54BELVACHAI2
DNF: abandon; DSQ: disqualifié; Vitesse en km/h
Page: [1]